Time,TemperatureF,DewpointF,PressureIn,WindDirection,WindDirectionDegrees,WindSpeedMPH,WindSpeedGustMPH,Humidity,HourlyPrecipIn,Conditions,Clouds,dailyrainin,SoftwareType,DateUTC
2013-12-16 00:08:00,34.0,23.5,-100.00,North,-999,0.0,0.0,65,0.00,,,-99.99,FreeWX-Wi 1.02,2013-12-16 05:08:00,
2013-12-16 00:18:00,34.0,23.5,-100.00,North,-999,0.0,0.0,65,0.00,,,-99.99,FreeWX-Wi 1.02,2013-12-16 05:18:00,
2013-12-16 00:28:00,34.0,23.5,-100.00,North,-999,0.0,0.0,65,0.00,,,-99.99,FreeWX-Wi 1.02,2013-12-16 05:28:00,
2013-12-16 00:38:00,33.8,23.4,-100.00,North,-999,0.0,0.0,65,0.00,,,-99.99,FreeWX-Wi 1.02,2013-12-16 05:38:00,
2013-12-16 00:48:00,33.8,23.7,-100.00,North,-999,0.0,0.0,66,0.00,,,-99.99,FreeWX-Wi 1.02,2013-12-16 05:48:00,
2013-12-16 00:58:00,33.6,23.5,-100.00,North,-999,0.0,0.0,66,0.00,,,-99.99,FreeWX-Wi 1.02,2013-12-16 05:58:00,
2013-12-16 01:08:00,33.6,23.9,-100.00,North,-999,0.0,0.0,67,0.00,,,-99.99,FreeWX-Wi 1.02,2013-12-16 06:08:00,
2013-12-16 01:18:00,33.6,23.9,-100.00,North,-999,0.0,0.0,67,0.00,,,-99.99,FreeWX-Wi 1.02,2013-12-16 06:18:00,
2013-12-16 01:28:00,33.3,23.5,-100.00,North,-999,0.0,0.0,67,0.00,,,-99.99,FreeWX-Wi 1.02,2013-12-16 06:28:00,
2013-12-16 01:38:00,33.3,23.9,-100.00,North,-999,0.0,0.0,68,0.00,,,-99.99,FreeWX-Wi 1.02,2013-12-16 06:38:00,
2013-12-16 01:48:00,33.3,23.9,-100.00,North,-999,0.0,0.0,68,0.00,,,-99.99,FreeWX-Wi 1.02,2013-12-16 06:48:00,
2013-12-16 01:58:00,33.3,23.9,-100.00,North,-999,0.0,0.0,68,0.00,,,-99.99,FreeWX-Wi 1.02,2013-12-16 06:58:00,
2013-12-16 02:08:00,32.9,23.5,-100.00,North,-999,0.0,0.0,68,0.00,,,-99.99,FreeWX-Wi 1.02,2013-12-16 07:08:00,
2013-12-16 02:18:00,32.9,23.5,-100.00,North,-999,0.0,0.0,68,0.00,,,-99.99,FreeWX-Wi 1.02,2013-12-16 07:18:00,
2013-12-16 02:28:00,32.7,23.4,-100.00,North,-999,0.0,0.0,68,0.00,,,-99.99,FreeWX-Wi 1.02,2013-12-16 07:28:00,
2013-12-16 02:38:00,32.9,23.9,-100.00,North,-999,0.0,0.0,69,0.00,,,-99.99,FreeWX-Wi 1.02,2013-12-16 07:38:00,
2013-12-16 02:48:00,32.7,23.7,-100.00,North,-999,0.0,0.0,69,0.00,,,-99.99,FreeWX-Wi 1.02,2013-12-16 07:48:00,
2013-12-16 02:58:00,33.1,24.4,-100.00,North,-999,0.0,0.0,70,0.00,,,-99.99,FreeWX-Wi 1.02,2013-12-16 07:58:00,
2013-12-16 03:08:00,32.9,23.9,-100.00,North,-999,0.0,0.0,69,0.00,,,-99.99,FreeWX-Wi 1.02,2013-12-16 08:08:00,
2013-12-16 03:18:00,32.7,23.7,-100.00,North,-999,0.0,0.0,69,0.00,,,-99.99,FreeWX-Wi 1.02,2013-12-16 08:18:00,
2013-12-16 03:28:00,32.5,23.5,-100.00,North,-999,0.0,0.0,69,0.00,,,-99.99,FreeWX-Wi 1.02,2013-12-16 08:28:00,
2013-12-16 03:38:00,32.5,23.9,-100.00,North,-999,0.0,0.0,70,0.00,,,-99.99,FreeWX-Wi 1.02,2013-12-16 08:38:00,
2013-12-16 03:48:00,32.5,23.9,-100.00,North,-999,0.0,0.0,70,0.00,,,-99.99,FreeWX-Wi 1.02,2013-12-16 08:48:00,
2013-12-16 03:58:00,32.5,23.9,-100.00,North,-999,0.0,0.0,70,0.00,,,-99.99,FreeWX-Wi 1.02,2013-12-16 08:58:00,
2013-12-16 04:08:00,32.5,23.9,-100.00,North,-999,0.0,0.0,70,0.00,,,-99.99,FreeWX-Wi 1.02,2013-12-16 09:08:00,
2013-12-16 04:18:00,32.7,24.1,-100.00,North,-999,0.0,0.0,70,0.00,,,-99.99,FreeWX-Wi 1.02,2013-12-16 09:18:00,
2013-12-16 04:28:00,32.7,24.1,-100.00,North,-999,0.0,0.0,70,0.00,,,-99.99,FreeWX-Wi 1.02,2013-12-16 09:28:00,
2013-12-16 04:38:00,32.2,23.5,-100.00,North,-999,0.0,0.0,70,0.00,,,-99.99,FreeWX-Wi 1.02,2013-12-16 09:38:00,
2013-12-16 04:48:00,32.0,23.4,-100.00,North,-999,0.0,0.0,70,0.00,,,-99.99,FreeWX-Wi 1.02,2013-12-16 09:48:00,
2013-12-16 04:58:00,32.2,23.9,-100.00,North,-999,0.0,0.0,71,0.00,,,-99.99,FreeWX-Wi 1.02,2013-12-16 09:58:00,
2013-12-16 05:08:00,32.4,24.1,-100.00,North,-999,0.0,0.0,71,0.00,,,-99.99,FreeWX-Wi 1.02,2013-12-16 10:08:00,
2013-12-16 05:18:00,32.2,23.9,-100.00,North,-999,0.0,0.0,71,0.00,,,-99.99,FreeWX-Wi 1.02,2013-12-16 10:18:00,
2013-12-16 05:28:00,32.0,23.7,-100.00,North,-999,0.0,0.0,71,0.00,,,-99.99,FreeWX-Wi 1.02,2013-12-16 10:28:00,
2013-12-16 05:38:00,32.2,23.9,-100.00,North,-999,0.0,0.0,71,0.00,,,-99.99,FreeWX-Wi 1.02,2013-12-16 10:38:00,
2013-12-16 05:48:00,32.0,23.7,-100.00,North,-999,0.0,0.0,71,0.00,,,-99.99,FreeWX-Wi 1.02,2013-12-16 10:48:00,
2013-12-16 05:58:00,32.0,23.7,-100.00,North,-999,0.0,0.0,71,0.00,,,-99.99,FreeWX-Wi 1.02,2013-12-16 10:58:00,
2013-12-16 06:08:00,32.0,23.7,-100.00,North,-999,0.0,0.0,71,0.00,,,-99.99,FreeWX-Wi 1.02,2013-12-16 11:08:00,
2013-12-16 06:18:00,31.6,23.4,-100.00,North,-999,0.0,0.0,71,0.00,,,-99.99,FreeWX-Wi 1.02,2013-12-16 11:18:00,
2013-12-16 06:28:00,31.6,23.4,-100.00,North,-999,0.0,0.0,71,0.00,,,-99.99,FreeWX-Wi 1.02,2013-12-16 11:28:00,
2013-12-16 06:38:00,31.6,23.7,-100.00,North,-999,0.0,0.0,72,0.00,,,-99.99,FreeWX-Wi 1.02,2013-12-16 11:38:00,
2013-12-16 06:48:00,31.5,23.2,-100.00,North,-999,0.0,0.0,71,0.00,,,-99.99,FreeWX-Wi 1.02,2013-12-16 11:48:00,
2013-12-16 06:58:00,31.5,23.5,-100.00,North,-999,0.0,0.0,72,0.00,,,-99.99,FreeWX-Wi 1.02,2013-12-16 11:58:00,
2013-12-16 07:08:00,31.5,23.5,-100.00,North,-999,0.0,0.0,72,0.00,,,-99.99,FreeWX-Wi 1.02,2013-12-16 12:08:00,
2013-12-16 07:19:00,30.9,22.6,-100.00,North,-999,0.0,0.0,71,0.00,,,-99.99,FreeWX-Wi 1.02,2013-12-16 12:19:00,
2013-12-16 07:29:00,31.1,23.2,-100.00,North,-999,0.0,0.0,72,0.00,,,-99.99,FreeWX-Wi 1.02,2013-12-16 12:29:00,
2013-12-16 07:39:00,31.3,23.4,-100.00,North,-999,0.0,0.0,72,0.00,,,-99.99,FreeWX-Wi 1.02,2013-12-16 12:39:00,
2013-12-16 07:49:00,31.3,23.4,-100.00,North,-999,0.0,0.0,72,0.00,,,-99.99,FreeWX-Wi 1.02,2013-12-16 12:49:00,
2013-12-16 07:59:00,31.1,23.2,-100.00,North,-999,0.0,0.0,72,0.00,,,-99.99,FreeWX-Wi 1.02,2013-12-16 12:59:00,
2013-12-16 08:09:00,31.3,23.4,-100.00,North,-999,0.0,0.0,72,0.00,,,-99.99,FreeWX-Wi 1.02,2013-12-16 13:09:00,
2013-12-16 08:19:00,31.8,24.1,-100.00,North,-999,0.0,0.0,73,0.00,,,-99.99,FreeWX-Wi 1.02,2013-12-16 13:19:00,
2013-12-16 08:29:00,32.2,24.4,-100.00,North,-999,0.0,0.0,73,0.00,,,-99.99,FreeWX-Wi 1.02,2013-12-16 13:29:00,
2013-12-16 08:39:00,32.2,24.4,-100.00,North,-999,0.0,0.0,73,0.00,,,-99.99,FreeWX-Wi 1.02,2013-12-16 13:39:00,
2013-12-16 08:49:00,32.2,24.4,-100.00,North,-999,0.0,0.0,73,0.00,,,-99.99,FreeWX-Wi 1.02,2013-12-16 13:49:00,
2013-12-16 08:59:00,32.2,24.4,-100.00,North,-999,0.0,0.0,73,0.00,,,-99.99,FreeWX-Wi 1.02,2013-12-16 13:59:00,
2013-12-16 09:09:00,32.2,24.4,-100.00,North,-999,0.0,0.0,73,0.00,,,-99.99,FreeWX-Wi 1.02,2013-12-16 14:09:00,
2013-12-16 09:19:00,32.5,25.2,-100.00,North,-999,0.0,0.0,74,0.00,,,-99.99,FreeWX-Wi 1.02,2013-12-16 14:19:00,
2013-12-16 09:29:00,32.9,25.5,-100.00,North,-999,0.0,0.0,74,0.00,,,-99.99,FreeWX-Wi 1.02,2013-12-16 14:29:00,
2013-12-16 09:39:00,33.1,25.7,-100.00,North,-999,0.0,0.0,74,0.00,,,-99.99,FreeWX-Wi 1.02,2013-12-16 14:39:00,
2013-12-16 09:49:00,33.6,26.2,-100.00,North,-999,0.0,0.0,74,0.00,,,-99.99,FreeWX-Wi 1.02,2013-12-16 14:49:00,
2013-12-16 09:59:00,34.3,27.0,-100.00,North,-999,0.0,0.0,74,0.00,,,-99.99,FreeWX-Wi 1.02,2013-12-16 14:59:00,
2013-12-16 10:09:00,34.9,27.9,-100.00,North,-999,0.0,0.0,75,0.00,,,-99.99,FreeWX-Wi 1.02,2013-12-16 15:09:00,
2013-12-16 10:19:00,35.4,28.2,-100.00,North,-999,0.0,0.0,75,0.00,,,-99.99,FreeWX-Wi 1.02,2013-12-16 15:19:00,
2013-12-16 10:29:00,36.0,28.6,-100.00,North,-999,0.0,0.0,74,0.00,,,-99.99,FreeWX-Wi 1.02,2013-12-16 15:29:00,
2013-12-16 10:39:00,36.3,28.8,-100.00,North,-999,0.0,0.0,74,0.00,,,-99.99,FreeWX-Wi 1.02,2013-12-16 15:39:00,
2013-12-16 10:49:00,36.7,29.1,-100.00,North,-999,0.0,0.0,74,0.00,,,-99.99,FreeWX-Wi 1.02,2013-12-16 15:49:00,
2013-12-16 10:59:00,37.4,29.8,-100.00,North,-999,0.0,0.0,74,0.00,,,-99.99,FreeWX-Wi 1.02,2013-12-16 15:59:00,
2013-12-16 11:09:00,37.9,29.7,-100.00,North,-999,0.0,0.0,72,0.00,,,-99.99,FreeWX-Wi 1.02,2013-12-16 16:09:00,
2013-12-16 11:19:00,38.5,30.2,-100.00,North,-999,0.0,0.0,72,0.00,,,-99.99,FreeWX-Wi 1.02,2013-12-16 16:19:00,
2013-12-16 11:29:00,39.2,30.2,-100.00,North,-999,0.0,0.0,70,0.00,,,-99.99,FreeWX-Wi 1.02,2013-12-16 16:29:00,
2013-12-16 11:39:00,39.2,29.5,-100.00,North,-999,0.0,0.0,68,0.00,,,-99.99,FreeWX-Wi 1.02,2013-12-16 16:39:00,
2013-12-16 11:49:00,39.9,30.2,-100.00,North,-999,0.0,0.0,68,0.00,,,-99.99,FreeWX-Wi 1.02,2013-12-16 16:49:00,
2013-12-16 11:59:00,41.2,30.7,-100.00,North,-999,0.0,0.0,66,0.00,,,-99.99,FreeWX-Wi 1.02,2013-12-16 16:59:00,
2013-12-16 12:09:00,41.7,29.3,-100.00,North,-999,0.0,0.0,61,0.00,,,-99.99,FreeWX-Wi 1.02,2013-12-16 17:09:00,
2013-12-16 12:19:00,41.7,28.4,-100.00,North,-999,0.0,0.0,59,0.00,,,-99.99,FreeWX-Wi 1.02,2013-12-16 17:19:00,
2013-12-16 12:29:00,43.0,28.4,-100.00,North,-999,0.0,0.0,56,0.00,,,-99.99,FreeWX-Wi 1.02,2013-12-16 17:29:00,
2013-12-16 12:39:00,43.5,28.0,-100.00,North,-999,0.0,0.0,54,0.00,,,-99.99,FreeWX-Wi 1.02,2013-12-16 17:39:00,
2013-12-16 12:49:00,44.1,27.1,-100.00,North,-999,0.0,0.0,51,0.00,,,-99.99,FreeWX-Wi 1.02,2013-12-16 17:49:00,
2013-12-16 12:59:00,44.4,26.4,-100.00,North,-999,0.0,0.0,49,0.00,,,-99.99,FreeWX-Wi 1.02,2013-12-16 17:59:00,
2013-12-16 13:09:00,45.0,25.5,-100.00,North,-999,0.0,0.0,46,0.00,,,-99.99,FreeWX-Wi 1.02,2013-12-16 18:09:00,
2013-12-16 13:19:00,45.5,25.3,-100.00,North,-999,0.0,0.0,45,0.00,,,-99.99,FreeWX-Wi 1.02,2013-12-16 18:19:00,
2013-12-16 13:29:00,46.0,25.9,-100.00,North,-999,0.0,0.0,45,0.00,,,-99.99,FreeWX-Wi 1.02,2013-12-16 18:29:00,
2013-12-16 13:39:00,46.4,25.7,-100.00,North,-999,0.0,0.0,44,0.00,,,-99.99,FreeWX-Wi 1.02,2013-12-16 18:39:00,
2013-12-16 13:49:00,46.8,26.1,-100.00,North,-999,0.0,0.0,44,0.00,,,-99.99,FreeWX-Wi 1.02,2013-12-16 18:49:00,
2013-12-16 13:59:00,47.1,26.4,-100.00,North,-999,0.0,0.0,44,0.00,,,-99.99,FreeWX-Wi 1.02,2013-12-16 18:59:00,
2013-12-16 14:09:00,47.7,26.2,-100.00,North,-999,0.0,0.0,43,0.00,,,-99.99,FreeWX-Wi 1.02,2013-12-16 19:09:00,
2013-12-16 14:19:00,48.2,26.8,-100.00,North,-999,0.0,0.0,43,0.00,,,-99.99,FreeWX-Wi 1.02,2013-12-16 19:19:00,
2013-12-16 14:29:00,48.6,26.6,-100.00,North,-999,0.0,0.0,42,0.00,,,-99.99,FreeWX-Wi 1.02,2013-12-16 19:29:00,
2013-12-16 14:39:00,49.1,26.4,-100.00,North,-999,0.0,0.0,41,0.00,,,-99.99,FreeWX-Wi 1.02,2013-12-16 19:39:00,
2013-12-16 14:49:00,49.5,26.2,-100.00,North,-999,0.0,0.0,40,0.00,,,-99.99,FreeWX-Wi 1.02,2013-12-16 19:49:00,
2013-12-16 14:59:00,49.3,26.1,-100.00,North,-999,0.0,0.0,40,0.00,,,-99.99,FreeWX-Wi 1.02,2013-12-16 19:59:00,
2013-12-16 15:09:00,49.1,25.9,-100.00,North,-999,0.0,0.0,40,0.00,,,-99.99,FreeWX-Wi 1.02,2013-12-16 20:09:00,
2013-12-16 15:19:00,49.1,25.9,-100.00,North,-999,0.0,0.0,40,0.00,,,-99.99,FreeWX-Wi 1.02,2013-12-16 20:19:00,
2013-12-16 15:29:00,48.6,25.3,-100.00,North,-999,0.0,0.0,40,0.00,,,-99.99,FreeWX-Wi 1.02,2013-12-16 20:29:00,
2013-12-16 15:39:00,48.2,25.7,-100.00,North,-999,0.0,0.0,41,0.00,,,-99.99,FreeWX-Wi 1.02,2013-12-16 20:39:00,
2013-12-16 15:49:00,48.0,25.5,-100.00,North,-999,0.0,0.0,41,0.00,,,-99.99,FreeWX-Wi 1.02,2013-12-16 20:49:00,
2013-12-16 15:59:00,47.7,25.7,-100.00,North,-999,0.0,0.0,42,0.00,,,-99.99,FreeWX-Wi 1.02,2013-12-16 20:59:00,
2013-12-16 16:09:00,47.3,25.3,-100.00,North,-999,0.0,0.0,42,0.00,,,-99.99,FreeWX-Wi 1.02,2013-12-16 21:09:00,
2013-12-16 16:19:00,46.9,25.7,-100.00,North,-999,0.0,0.0,43,0.00,,,-99.99,FreeWX-Wi 1.02,2013-12-16 21:19:00,
2013-12-16 16:29:00,46.4,25.7,-100.00,North,-999,0.0,0.0,44,0.00,,,-99.99,FreeWX-Wi 1.02,2013-12-16 21:29:00,
2013-12-16 16:39:00,46.0,25.9,-100.00,North,-999,0.0,0.0,45,0.00,,,-99.99,FreeWX-Wi 1.02,2013-12-16 21:39:00,
2013-12-16 16:49:00,45.5,25.9,-100.00,North,-999,0.0,0.0,46,0.00,,,-99.99,FreeWX-Wi 1.02,2013-12-16 21:49:00,
2013-12-16 16:59:00,45.1,26.1,-100.00,North,-999,0.0,0.0,47,0.00,,,-99.99,FreeWX-Wi 1.02,2013-12-16 21:59:00,
2013-12-16 17:09:00,44.8,25.9,-100.00,North,-999,0.0,0.0,47,0.00,,,-99.99,FreeWX-Wi 1.02,2013-12-16 22:09:00,
2013-12-16 17:19:00,44.2,25.9,-100.00,North,-999,0.0,0.0,48,0.00,,,-99.99,FreeWX-Wi 1.02,2013-12-16 22:19:00,
2013-12-16 17:29:00,44.1,25.7,-100.00,North,-999,0.0,0.0,48,0.00,,,-99.99,FreeWX-Wi 1.02,2013-12-16 22:29:00,
2013-12-16 17:39:00,43.5,25.7,-100.00,North,-999,0.0,0.0,49,0.00,,,-99.99,FreeWX-Wi 1.02,2013-12-16 22:39:00,
2013-12-16 17:49:00,43.0,25.2,-100.00,North,-999,0.0,0.0,49,0.00,,,-99.99,FreeWX-Wi 1.02,2013-12-16 22:49:00,
2013-12-16 17:59:00,42.6,25.3,-100.00,North,-999,0.0,0.0,50,0.00,,,-99.99,FreeWX-Wi 1.02,2013-12-16 22:59:00,
2013-12-16 18:09:00,42.3,25.0,-100.00,North,-999,0.0,0.0,50,0.00,,,-99.99,FreeWX-Wi 1.02,2013-12-16 23:09:00,
2013-12-16 18:19:00,42.1,25.3,-100.00,North,-999,0.0,0.0,51,0.00,,,-99.99,FreeWX-Wi 1.02,2013-12-16 23:19:00,
2013-12-16 18:29:00,41.9,25.5,-100.00,North,-999,0.0,0.0,52,0.00,,,-99.99,FreeWX-Wi 1.02,2013-12-16 23:29:00,
2013-12-16 18:39:00,41.5,25.2,-100.00,North,-999,0.0,0.0,52,0.00,,,-99.99,FreeWX-Wi 1.02,2013-12-16 23:39:00,
2013-12-16 18:49:00,41.5,25.7,-100.00,North,-999,0.0,0.0,53,0.00,,,-99.99,FreeWX-Wi 1.02,2013-12-16 23:49:00,
2013-12-16 18:59:00,41.2,25.9,-100.00,North,-999,0.0,0.0,54,0.00,,,-99.99,FreeWX-Wi 1.02,2013-12-16 23:59:00,
2013-12-16 19:09:00,41.0,26.1,-100.00,North,-999,0.0,0.0,55,0.00,,,-99.99,FreeWX-Wi 1.02,2013-12-17 00:09:00,
2013-12-16 19:19:00,40.8,26.4,-100.00,North,-999,0.0,0.0,56,0.00,,,-99.99,FreeWX-Wi 1.02,2013-12-17 00:19:00,
2013-12-16 19:29:00,40.6,26.2,-100.00,North,-999,0.0,0.0,56,0.00,,,-99.99,FreeWX-Wi 1.02,2013-12-17 00:29:00,
2013-12-16 19:39:00,40.5,26.1,-100.00,North,-999,0.0,0.0,56,0.00,,,-99.99,FreeWX-Wi 1.02,2013-12-17 00:39:00,
2013-12-16 19:49:00,40.3,25.9,-100.00,North,-999,0.0,0.0,56,0.00,,,-99.99,FreeWX-Wi 1.02,2013-12-17 00:49:00,
2013-12-16 19:59:00,40.3,25.9,-100.00,North,-999,0.0,0.0,56,0.00,,,-99.99,FreeWX-Wi 1.02,2013-12-17 00:59:00,
2013-12-16 20:09:00,40.3,25.9,-100.00,North,-999,0.0,0.0,56,0.00,,,-99.99,FreeWX-Wi 1.02,2013-12-17 01:09:00,
2013-12-16 20:19:00,40.1,25.7,-100.00,North,-999,0.0,0.0,56,0.00,,,-99.99,FreeWX-Wi 1.02,2013-12-17 01:19:00,
2013-12-16 20:29:00,39.9,25.5,-100.00,North,-999,0.0,0.0,56,0.00,,,-99.99,FreeWX-Wi 1.02,2013-12-17 01:29:00,
2013-12-16 20:39:00,39.9,25.5,-100.00,North,-999,0.0,0.0,56,0.00,,,-99.99,FreeWX-Wi 1.02,2013-12-17 01:39:00,
2013-12-16 20:49:00,39.9,25.5,-100.00,North,-999,0.0,0.0,56,0.00,,,-99.99,FreeWX-Wi 1.02,2013-12-17 01:49:00,
2013-12-16 20:59:00,39.7,25.7,-100.00,North,-999,0.0,0.0,57,0.00,,,-99.99,FreeWX-Wi 1.02,2013-12-17 01:59:00,
2013-12-16 21:09:00,39.7,25.7,-100.00,North,-999,0.0,0.0,57,0.00,,,-99.99,FreeWX-Wi 1.02,2013-12-17 02:09:00,
2013-12-16 21:19:00,39.7,25.7,-100.00,North,-999,0.0,0.0,57,0.00,,,-99.99,FreeWX-Wi 1.02,2013-12-17 02:19:00,
2013-12-16 21:29:00,39.6,26.1,-100.00,North,-999,0.0,0.0,58,0.00,,,-99.99,FreeWX-Wi 1.02,2013-12-17 02:29:00,
2013-12-16 21:39:00,39.7,26.6,-100.00,North,-999,0.0,0.0,59,0.00,,,-99.99,FreeWX-Wi 1.02,2013-12-17 02:39:00,
2013-12-16 21:49:00,39.9,26.8,-100.00,North,-999,0.0,0.0,59,0.00,,,-99.99,FreeWX-Wi 1.02,2013-12-17 02:49:00,
2013-12-16 21:59:00,39.9,27.1,-100.00,North,-999,0.0,0.0,60,0.00,,,-99.99,FreeWX-Wi 1.02,2013-12-17 02:59:00,
2013-12-16 22:09:00,39.9,27.1,-100.00,North,-999,0.0,0.0,60,0.00,,,-99.99,FreeWX-Wi 1.02,2013-12-17 03:09:00,
2013-12-16 22:19:00,39.9,27.1,-100.00,North,-999,0.0,0.0,60,0.00,,,-99.99,FreeWX-Wi 1.02,2013-12-17 03:19:00,
2013-12-16 22:29:00,39.9,27.1,-100.00,North,-999,0.0,0.0,60,0.00,,,-99.99,FreeWX-Wi 1.02,2013-12-17 03:29:00,
2013-12-16 22:39:00,39.9,27.1,-100.00,North,-999,0.0,0.0,60,0.00,,,-99.99,FreeWX-Wi 1.02,2013-12-17 03:39:00,
2013-12-16 22:49:00,39.9,27.1,-100.00,North,-999,0.0,0.0,60,0.00,,,-99.99,FreeWX-Wi 1.02,2013-12-17 03:49:00,
2013-12-16 22:59:00,39.7,27.0,-100.00,North,-999,0.0,0.0,60,0.00,,,-99.99,FreeWX-Wi 1.02,2013-12-17 03:59:00,
2013-12-16 23:09:00,39.6,26.8,-100.00,North,-999,0.0,0.0,60,0.00,,,-99.99,FreeWX-Wi 1.02,2013-12-17 04:09:00,
2013-12-16 23:19:00,39.4,26.6,-100.00,North,-999,0.0,0.0,60,0.00,,,-99.99,FreeWX-Wi 1.02,2013-12-17 04:19:00,
2013-12-16 23:29:00,39.2,26.4,-100.00,North,-999,0.0,0.0,60,0.00,,,-99.99,FreeWX-Wi 1.02,2013-12-17 04:29:00,
2013-12-16 23:39:00,39.2,27.0,-100.00,North,-999,0.0,0.0,61,0.00,,,-99.99,FreeWX-Wi 1.02,2013-12-17 04:39:00,
2013-12-16 23:49:00,39.0,26.8,-100.00,North,-999,0.0,0.0,61,0.00,,,-99.99,FreeWX-Wi 1.02,2013-12-17 04:49:00,
2013-12-16 23:59:00,39.0,27.1,-100.00,North,-999,0.0,0.0,62,0.00,,,-99.99,FreeWX-Wi 1.02,2013-12-17 04:59:00,